Time;durP1;ratioP1;P1;durP2;ratioP2;P2;SDS_P1;SDS_P2;PMS_P1;PMS_P2;Temp;Humidity;BMP_temperature;BMP_pressure;BME280_temperature;BME280_humidity;BME280_pressure;Samples;Min_cycle;Max_cycle;Signal;HPM_P1;HPM_P2
2022/05/12 00:01:27;;;;;;;7.97;5.63;;;;;;;18.21;73.40;101131.06;4930730;29;20055;-71
2022/05/12 00:03:55;;;;;;;10.52;5.45;;;;;;;18.05;75.06;101130.63;4926729;29;20066;-71
2022/05/12 00:06:23;;;;;;;6.03;4.68;;;;;;;18.04;73.66;101131.78;4936265;29;20510;-71
2022/05/12 00:08:53;;;;;;;5.50;4.55;;;;;;;18.11;73.69;101135.75;4933592;29;20055;-71
2022/05/12 00:11:21;;;;;;;8.43;5.20;;;;;;;17.97;74.30;101129.44;4917815;29;20047;-71
2022/05/12 00:13:49;;;;;;;6.30;4.50;;;;;;;18.04;73.26;101129.78;4929520;29;20067;-71
2022/05/12 00:16:17;;;;;;;7.50;4.43;;;;;;;17.85;74.89;101128.06;4925270;29;20515;-71
2022/05/12 00:18:45;;;;;;;7.38;4.60;;;;;;;17.75;76.57;101128.34;4935850;29;20055;-71
2022/05/12 00:21:13;;;;;;;9.73;5.00;;;;;;;17.60;76.33;101119.28;4935887;29;20058;-71
2022/05/12 00:23:41;;;;;;;6.07;4.60;;;;;;;17.73;76.51;101117.59;4931816;29;20063;-71
2022/05/12 00:26:09;;;;;;;6.72;4.97;;;;;;;17.69;75.85;101122.09;4926793;29;20079;-71
2022/05/12 00:28:36;;;;;;;9.02;4.95;;;;;;;17.67;76.16;101120.78;4935692;29;20055;-71
2022/05/12 00:31:05;;;;;;;9.82;4.78;;;;;;;17.70;75.68;101126.50;4936176;29;20039;-71
2022/05/12 00:33:33;;;;;;;8.38;5.25;;;;;;;17.63;76.19;101117.84;4935939;29;20050;-71
2022/05/12 00:36:01;;;;;;;8.80;5.03;;;;;;;17.52;77.82;101124.75;4935840;29;20040;-71
2022/05/12 00:38:29;;;;;;;7.65;5.15;;;;;;;17.43;77.86;101125.50;4935323;29;20048;-71
2022/05/12 00:40:57;;;;;;;8.02;4.65;;;;;;;17.40;77.57;101128.91;4935758;29;20044;-71
2022/05/12 00:43:39;;;;;;;9.13;5.60;;;;;;;17.45;78.18;101116.91;4935140;29;20601;-71
2022/05/12 00:46:11;;;;;;;11.48;4.88;;;;;;;17.40;78.28;101123.38;4934904;29;20403;-71
2022/05/12 00:48:40;;;;;;;6.57;4.30;;;;;;;17.43;77.65;101122.75;4935068;29;20078;-71
2022/05/12 00:51:11;;;;;;;8.20;4.78;;;;;;;17.48;78.65;101118.19;4934941;29;20047;-71
2022/05/12 00:53:39;;;;;;;9.77;5.30;;;;;;;17.50;77.65;101118.72;4935131;29;20047;-71
2022/05/12 00:56:12;;;;;;;6.45;4.88;;;;;;;17.41;78.46;101122.22;4935166;29;20055;-71
2022/05/12 00:58:40;;;;;;;8.90;5.53;;;;;;;17.32;79.17;101118.59;4935651;29;20044;-71
2022/05/12 01:01:09;;;;;;;10.45;5.78;;;;;;;17.23;79.45;101117.69;4934841;29;20056;-71
2022/05/12 01:03:40;;;;;;;7.38;4.93;;;;;;;17.22;79.99;101116.06;4934891;29;20522;-71
2022/05/12 01:06:09;;;;;;;7.90;4.90;;;;;;;17.28;79.48;101115.63;4921889;29;20044;-71
2022/05/12 01:08:38;;;;;;;7.40;5.13;;;;;;;17.39;79.26;101115.38;4918125;29;20051;-70
2022/05/12 01:11:12;;;;;;;9.40;5.30;;;;;;;17.34;78.59;101113.56;4935422;29;20496;-71
2022/05/12 01:13:41;;;;;;;9.43;5.70;;;;;;;17.17;79.63;101114.22;4929337;29;20044;-71
2022/05/12 01:16:09;;;;;;;8.50;5.25;;;;;;;17.12;79.24;101111.59;4927689;29;20040;-71
2022/05/12 01:18:40;;;;;;;6.80;4.82;;;;;;;16.88;80.85;101104.34;4934265;29;20058;-70
2022/05/12 01:21:10;;;;;;;7.72;4.95;;;;;;;16.76;81.62;101110.38;4934395;29;20495;-70
2022/05/12 01:23:40;;;;;;;6.85;5.25;;;;;;;16.88;80.86;101116.22;4935068;29;20056;-71
2022/05/12 01:26:13;;;;;;;9.30;5.75;;;;;;;16.79;81.25;101112.53;4934487;29;20064;-71
2022/05/12 01:28:41;;;;;;;13.25;6.13;;;;;;;16.71;81.62;101113.28;4934518;29;20495;-70
2022/05/12 01:31:15;;;;;;;11.45;6.40;;;;;;;16.75;81.09;101114.28;4915679;29;20039;-71
2022/05/12 01:33:43;;;;;;;;;;;;;;;16.84;81.13;101117.13;4925087;29;20495;-71
2022/05/12 01:36:11;;;;;;;9.00;5.82;;;;;;;16.89;81.36;101117.84;4921808;29;19923;-71
2022/05/12 01:38:39;;;;;;;12.10;6.80;;;;;;;16.73;82.03;101131.19;4934106;29;20722;-71
2022/05/12 01:41:07;;;;;;;13.27;6.10;;;;;;;16.60;83.00;101132.00;4934285;29;20059;-71
2022/05/12 01:43:35;;;;;;;10.43;6.15;;;;;;;16.53;83.23;101124.94;4934086;29;20063;-71
2022/05/12 01:46:02;;;;;;;10.30;6.00;;;;;;;16.68;82.36;101124.94;4934184;29;20059;-71
2022/05/12 01:48:30;;;;;;;13.75;6.28;;;;;;;16.70;83.53;101122.66;4934482;29;20054;-71
2022/05/12 01:50:59;;;;;;;13.25;7.65;;;;;;;16.66;83.28;101122.47;4934114;29;20479;-71
2022/05/12 01:53:27;;;;;;;11.00;6.25;;;;;;;16.61;83.42;101126.16;4933596;29;20048;-71
2022/05/12 01:55:54;;;;;;;13.50;6.75;;;;;;;16.49;84.82;101118.41;4934085;29;20060;-71
2022/05/12 01:58:22;;;;;;;11.48;6.47;;;;;;;16.42;85.23;101134.56;4934041;29;20495;-71
2022/05/12 02:00:49;;;;;;;12.98;6.50;;;;;;;16.47;84.68;101139.19;4934229;29;20060;-71
2022/05/12 02:03:18;;;;;;;11.27;5.32;;;;;;;16.50;84.35;101130.25;4933796;29;20051;-71
2022/05/12 02:05:46;;;;;;;11.07;6.38;;;;;;;16.49;84.12;101136.91;4933701;29;20063;-71
2022/05/12 02:08:15;;;;;;;14.00;6.53;;;;;;;16.41;84.55;101137.63;4926469;29;20036;-71
2022/05/12 02:10:47;;;;;;;9.55;6.07;;;;;;;16.44;84.57;101132.31;4926132;29;20036;-71
2022/05/12 02:13:20;;;;;;;11.85;5.65;;;;;;;16.33;84.55;101134.44;4931720;29;20048;-72
2022/05/12 02:15:48;;;;;;;10.77;6.00;;;;;;;16.49;83.92;101134.16;4918387;29;20056;-71
2022/05/12 02:18:20;;;;;;;7.43;5.68;;;;;;;16.42;84.95;101140.06;4930317;29;20048;-71
2022/05/12 02:20:48;;;;;;;10.30;5.82;;;;;;;16.38;84.24;101144.59;4926133;29;20511;-71
2022/05/12 02:23:16;;;;;;;6.72;5.75;;;;;;;16.26;84.54;101142.31;4909378;29;20400;-71
2022/05/12 02:25:45;;;;;;;11.63;6.70;;;;;;;16.26;84.56;101142.31;4923889;29;20408;-71
2022/05/12 02:28:14;;;;;;;12.70;6.75;;;;;;;16.35;83.08;101146.03;4918454;29;20060;-71
2022/05/12 02:30:43;;;;;;;14.45;7.63;;;;;;;16.46;82.40;101134.75;4937548;29;20074;-71
2022/05/12 02:33:11;;;;;;;10.32;6.70;;;;;;;16.55;79.89;101145.91;4937099;29;20056;-71
2022/05/12 02:35:39;;;;;;;11.25;7.15;;;;;;;16.54;80.05;101142.34;4938098;29;20063;-71
2022/05/12 02:38:09;;;;;;;12.30;7.50;;;;;;;16.54;79.84;101136.81;4937429;29;20055;-71
2022/05/12 02:40:37;;;;;;;9.40;6.50;;;;;;;16.55;79.49;101145.91;4937359;29;20048;-71
2022/05/12 02:43:23;;;;;;;14.80;6.53;;;;;;;16.59;79.24;101138.66;4937459;29;20052;-71
2022/05/12 02:46:01;;;;;;;13.52;7.43;;;;;;;16.53;78.85;101146.25;4937063;29;20066;-71
2022/05/12 02:48:34;;;;;;;10.70;6.60;;;;;;;16.64;80.25;101146.84;4937450;29;20487;-71
2022/05/12 02:51:03;;;;;;;14.10;7.03;;;;;;;16.54;78.91;101145.09;4937032;29;20052;-71
2022/05/12 02:53:32;;;;;;;11.80;7.03;;;;;;;16.51;79.07;101145.72;4937238;29;20047;-71
2022/05/12 02:56:01;;;;;;;10.98;6.93;;;;;;;16.41;79.32;101151.44;4936956;29;20070;-71
2022/05/12 02:58:29;;;;;;;12.65;6.93;;;;;;;16.47;78.56;101148.25;4937149;29;20044;-71
2022/05/12 03:00:57;;;;;;;15.77;7.47;;;;;;;16.49;78.46;101150.72;4937067;29;20499;-71
2022/05/12 03:03:29;;;;;;;14.73;7.35;;;;;;;16.50;79.64;101147.66;4936673;29;20059;-71
2022/05/12 03:05:57;;;;;;;16.77;8.15;;;;;;;16.61;79.69;101144.69;4936737;29;20051;-71
2022/05/12 03:08:27;;;;;;;10.38;6.82;;;;;;;16.65;78.63;101149.31;4936775;29;20060;-71
2022/05/12 03:10:55;;;;;;;14.32;7.35;;;;;;;16.70;79.50;101150.31;4935055;29;20056;-71
2022/05/12 03:13:23;;;;;;;11.75;7.05;;;;;;;16.53;80.35;101147.03;4937153;29;20059;-71
2022/05/12 03:15:52;;;;;;;12.35;7.13;;;;;;;16.49;80.08;101145.19;4935798;29;20056;-71
2022/05/12 03:18:20;;;;;;;8.68;6.47;;;;;;;16.32;80.95;101146.63;4937351;29;20043;-71
2022/05/12 03:20:48;;;;;;;11.05;7.57;;;;;;;16.19;81.48;101145.47;4937338;29;20048;-70
2022/05/12 03:23:23;;;;;;;11.30;6.53;;;;;;;16.26;81.59;101153.34;4936307;29;20044;-71
2022/05/12 03:25:52;;;;;;;13.02;6.90;;;;;;;16.41;80.65;101154.22;4935931;29;20071;-71
2022/05/12 03:28:21;;;;;;;10.18;6.80;;;;;;;16.46;80.42;101160.44;4925573;29;20388;-69
2022/05/12 03:30:49;;;;;;;9.55;6.18;;;;;;;16.37;80.41;101163.09;4936291;29;20051;-71
2022/05/12 03:33:17;;;;;;;11.35;7.25;;;;;;;16.23;81.39;101154.78;4936309;29;20059;-71
2022/05/12 03:35:45;;;;;;;11.27;6.30;;;;;;;16.02;83.03;101159.06;4936447;29;20503;-71
2022/05/12 03:38:15;;;;;;;12.50;6.65;;;;;;;15.90;83.11;101165.00;4936409;29;20056;-71
2022/05/12 03:40:43;;;;;;;9.68;6.55;;;;;;;15.74;84.36;101159.72;4936325;29;20056;-71
2022/05/12 03:44:46;;;;;;;11.70;6.78;;;;;;;15.71;84.30;101165.88;4919654;29;20054;-71
2022/05/12 03:46:00;;;;;;;10.63;7.35;;;;;;;15.78;84.41;101160.78;4936274;29;20070;-71
2022/05/12 03:48:28;;;;;;;9.98;6.90;;;;;;;15.81;84.83;101164.88;4936334;29;20048;-71
2022/05/12 03:50:56;;;;;;;12.23;7.13;;;;;;;15.74;85.73;101164.44;4936059;29;20056;-71
2022/05/12 03:53:25;;;;;;;15.30;6.82;;;;;;;15.63;86.22;101170.13;4936173;29;20052;-71
2022/05/12 03:55:53;;;;;;;9.77;6.68;;;;;;;15.49;87.07;101170.06;4935971;29;20051;-71
2022/05/12 03:58:21;;;;;;;15.57;7.55;;;;;;;15.50;87.21;101177.22;4935947;29;20047;-71
2022/05/12 04:00:49;;;;;;;11.98;7.28;;;;;;;15.47;87.53;101176.97;4936225;29;20066;-71
2022/05/12 04:03:17;;;;;;;12.75;6.95;;;;;;;15.50;87.60;101181.91;4935836;29;20047;-71
2022/05/12 04:05:46;;;;;;;10.85;6.65;;;;;;;15.46;88.24;101176.19;4935712;29;20056;-71
2022/05/12 04:08:14;;;;;;;10.23;7.13;;;;;;;15.41;88.42;101179.00;4936281;29;20044;-71
2022/05/12 04:10:42;;;;;;;13.65;7.43;;;;;;;15.59;87.00;101174.59;4935224;29;20407;-70
2022/05/12 04:13:10;;;;;;;10.60;7.15;;;;;;;15.43;88.89;101185.03;4936411;29;20454;-71
2022/05/12 04:15:38;;;;;;;11.07;7.65;;;;;;;15.39;89.04;101189.53;4935264;29;20055;-71
2022/05/12 04:18:06;;;;;;;13.95;8.10;;;;;;;15.29;88.80;101191.31;4935488;29;20056;-71
2022/05/12 04:20:36;;;;;;;10.90;7.57;;;;;;;15.46;88.82;101189.97;4935172;29;20052;-71
2022/05/12 04:23:05;;;;;;;13.57;7.88;;;;;;;15.52;89.26;101202.56;4935429;29;20052;-70
2022/05/12 04:25:33;;;;;;;15.05;7.95;;;;;;;15.59;87.95;101204.94;4935088;29;20055;-71
2022/05/12 04:28:03;;;;;;;12.27;7.55;;;;;;;15.64;87.44;101202.09;4934178;29;20059;-71
2022/05/12 04:30:32;;;;;;;12.05;7.93;;;;;;;15.69;86.89;101199.28;4935339;29;20047;-71
2022/05/12 04:35:11;;;;;;;13.32;7.80;;;;;;;15.67;87.22;101203.44;4935465;29;20056;-71
2022/05/12 04:35:48;;;;;;;13.73;7.80;;;;;;;15.80;85.80;101208.19;4934807;29;20063;-71
2022/05/12 04:38:17;;;;;;;15.63;7.85;;;;;;;15.90;85.19;101200.88;4934735;29;20399;-71
2022/05/12 04:40:46;;;;;;;12.02;7.70;;;;;;;15.95;85.73;101201.69;4933658;29;20055;-71
2022/05/12 04:43:13;;;;;;;13.70;8.68;;;;;;;15.81;86.36;101204.34;4935067;29;20039;-71
2022/05/12 04:45:41;;;;;;;11.10;7.57;;;;;;;15.94;85.71;101202.78;4934247;29;20056;-71
2022/05/12 04:48:09;;;;;;;10.95;7.05;;;;;;;16.26;84.34;101205.84;4934896;29;20359;-71
2022/05/12 04:50:40;;;;;;;12.82;7.80;;;;;;;16.68;82.35;101210.59;4935235;29;20050;-70
2022/05/12 04:53:08;;;;;;;13.52;7.22;;;;;;;17.00;80.23;101206.91;4935569;29;20392;-71
2022/05/12 04:55:38;;;;;;;14.75;8.02;;;;;;;17.09;79.29;101211.72;4934856;29;20060;-71
2022/05/12 04:58:06;;;;;;;11.88;7.55;;;;;;;17.35;78.14;101205.66;4933804;29;20440;-71
2022/05/12 05:00:40;;;;;;;12.90;7.03;;;;;;;17.58;77.19;101214.81;4930730;29;20613;-71
2022/05/12 05:03:11;;;;;;;10.93;6.90;;;;;;;17.86;75.98;101217.50;4930951;29;20522;-71
2022/05/12 05:05:47;;;;;;;11.05;7.10;;;;;;;17.97;75.11;101229.13;4934685;29;20047;-70
2022/05/12 05:08:18;;;;;;;10.27;6.93;;;;;;;17.94;74.76;101227.78;4934505;29;20051;-71
2022/05/12 05:10:48;;;;;;;10.13;7.13;;;;;;;17.94;74.82;101216.72;4934452;29;20056;-70
2022/05/12 05:13:18;;;;;;;11.18;6.43;;;;;;;18.11;74.34;101215.25;4933390;29;20062;-70
2022/05/12 05:15:47;;;;;;;12.02;7.03;;;;;;;18.21;73.62;101222.47;4942556;29;20067;-70
2022/05/12 05:18:17;;;;;;;10.40;7.25;;;;;;;18.17;73.31;101230.59;4934285;29;20395;-70
2022/05/12 05:20:46;;;;;;;10.88;7.10;;;;;;;18.27;72.94;101229.50;4942436;29;20052;-71
2022/05/12 05:23:21;;;;;;;12.07;6.43;;;;;;;18.40;72.81;101227.81;4928705;29;20044;-71
2022/05/12 05:25:50;;;;;;;11.65;7.53;;;;;;;18.64;71.31;101229.38;4930034;29;20051;-70
2022/05/12 05:28:19;;;;;;;10.02;6.47;;;;;;;18.62;71.21;101232.47;4927637;29;20048;-71
2022/05/12 05:30:47;;;;;;;9.75;6.78;;;;;;;18.66;71.34;101236.25;4928955;29;20052;-71
2022/05/12 05:33:16;;;;;;;9.75;6.88;;;;;;;18.82;70.38;101233.03;4930193;29;20052;-71
2022/05/12 05:35:45;;;;;;;8.63;6.18;;;;;;;18.92;69.88;101235.53;4927960;29;20051;-71
2022/05/12 05:38:12;;;;;;;9.80;6.15;;;;;;;19.09;69.74;101233.97;4929048;29;20054;-70
2022/05/12 05:40:40;;;;;;;10.43;6.13;;;;;;;19.22;69.08;101240.53;4925604;29;20062;-71
2022/05/12 05:43:13;;;;;;;11.07;7.10;;;;;;;19.27;69.23;101239.56;4921752;29;20044;-70
2022/05/12 05:45:41;;;;;;;8.68;7.00;;;;;;;19.27;69.22;101242.34;4925650;29;20043;-70
2022/05/12 05:48:09;;;;;;;10.60;6.43;;;;;;;19.36;68.69;101237.63;4921462;29;20054;-71
2022/05/12 05:53:31;;;;;;;10.13;6.20;;;;;;;19.58;67.42;101245.00;4928229;29;20051;-71
2022/05/12 05:56:01;;;;;;;9.45;6.53;;;;;;;19.54;67.19;101238.44;4920282;29;20052;-70
2022/05/12 05:58:29;;;;;;;10.30;6.43;;;;;;;19.56;67.14;101246.47;4931802;29;20047;-70
2022/05/12 06:00:57;;;;;;;9.23;6.28;;;;;;;19.69;67.12;101245.47;4916926;29;20043;-71
2022/05/12 06:03:25;;;;;;;9.27;6.35;;;;;;;19.78;66.69;101259.38;4933362;29;20055;-71
2022/05/12 06:05:54;;;;;;;13.32;6.20;;;;;;;19.86;66.23;101239.09;4933218;29;20050;-71
2022/05/12 06:08:22;;;;;;;9.63;6.20;;;;;;;19.95;66.29;101243.84;4933861;29;20047;-70
2022/05/12 06:11:03;;;;;;;11.80;7.28;;;;;;;19.94;65.48;101240.25;4917439;29;20068;-71
2022/05/12 06:13:34;;;;;;;10.40;6.20;;;;;;;20.07;65.26;101246.81;4932329;29;20055;-71
2022/05/12 06:16:04;;;;;;;9.20;6.60;;;;;;;20.09;65.01;101249.25;4933801;29;20055;-71
2022/05/12 06:18:34;;;;;;;9.80;6.50;;;;;;;20.13;64.24;101253.00;4927216;29;20391;-71
2022/05/12 06:21:04;;;;;;;10.55;6.93;;;;;;;20.22;63.85;101255.75;4933487;29;20051;-71
2022/05/12 06:23:32;;;;;;;11.93;6.72;;;;;;;20.24;63.72;101256.25;4933217;29;20059;-71
2022/05/12 06:26:00;;;;;;;12.18;7.40;;;;;;;20.34;64.76;101264.22;4933431;29;20058;-71
2022/05/12 06:28:28;;;;;;;11.77;7.18;;;;;;;20.40;63.88;101262.09;4922138;29;20467;-71
2022/05/12 06:30:56;;;;;;;10.95;6.97;;;;;;;20.46;64.32;101260.78;4932014;29;20040;-71
2022/05/12 06:33:24;;;;;;;15.45;8.27;;;;;;;20.56;64.19;101262.38;4925463;29;20542;-71
2022/05/12 06:35:55;;;;;;;10.35;7.15;;;;;;;20.67;64.00;101255.31;4923393;29;20056;-71
2022/05/12 06:38:23;;;;;;;12.32;7.78;;;;;;;20.73;62.73;101261.50;4923009;29;20063;-71
2022/05/12 06:40:53;;;;;;;10.52;7.60;;;;;;;20.74;63.34;101265.09;4924103;29;20071;-71
2022/05/12 06:43:23;;;;;;;14.40;7.32;;;;;;;20.92;62.33;101261.13;4921209;29;20043;-70
2022/05/12 06:45:55;;;;;;;12.43;7.80;;;;;;;21.04;64.34;101266.00;4904759;29;20051;-71
2022/05/12 06:48:24;;;;;;;12.63;7.97;;;;;;;21.19;61.29;101258.22;4925983;29;20051;-71
2022/05/12 06:50:53;;;;;;;11.88;7.60;;;;;;;21.32;62.67;101267.47;4930196;29;20043;-70
2022/05/12 06:53:21;;;;;;;14.50;8.63;;;;;;;21.45;60.85;101271.13;4932305;29;20063;-71
2022/05/12 06:55:49;;;;;;;12.38;7.50;;;;;;;21.53;60.41;101275.03;4916129;29;20071;-70
2022/05/12 06:58:17;;;;;;;13.13;8.25;;;;;;;21.48;60.12;101271.31;4936729;29;20051;-71
2022/05/12 07:00:46;;;;;;;12.00;8.07;;;;;;;21.61;60.27;101265.81;4920134;29;20050;-71
2022/05/12 07:03:14;;;;;;;11.13;8.52;;;;;;;21.62;59.51;101275.78;4935538;29;20048;-71
2022/05/12 07:05:42;;;;;;;14.38;8.00;;;;;;;21.66;60.38;101271.19;4936428;29;20407;-71
2022/05/12 07:08:10;;;;;;;13.88;8.35;;;;;;;21.66;61.59;101276.75;4936703;29;20063;-71
2022/05/12 07:10:38;;;;;;;12.40;8.30;;;;;;;21.71;60.70;101276.56;4936125;29;20521;-71
2022/05/12 07:13:06;;;;;;;12.15;8.25;;;;;;;21.72;59.95;101281.00;4936828;29;20051;-71
2022/05/12 07:15:34;;;;;;;12.43;8.55;;;;;;;21.77;61.70;101279.13;4937177;29;20032;-71
2022/05/12 07:18:02;;;;;;;16.52;9.13;;;;;;;21.84;60.78;101280.22;4936789;29;20384;-71
2022/05/12 07:28:49;;;;;;;15.23;8.90;;;;;;;21.93;60.31;101285.72;4935943;29;20411;-71
2022/05/12 07:31:17;;;;;;;14.90;9.60;;;;;;;22.01;61.19;101281.25;4936905;29;20036;-70
2022/05/12 07:33:47;;;;;;;14.75;8.40;;;;;;;22.09;60.27;101287.91;4936338;29;20063;-71
2022/05/12 07:36:27;;;;;;;10.85;7.55;;;;;;;22.18;60.18;101285.81;4936404;29;20407;-71
2022/05/12 07:38:55;;;;;;;13.43;7.95;;;;;;;22.24;59.07;101286.44;4935906;29;20059;-71
2022/05/12 07:41:24;;;;;;;14.13;9.25;;;;;;;22.34;59.55;101283.22;4936174;29;20052;-71
2022/05/12 07:43:54;;;;;;;12.82;7.75;;;;;;;22.45;59.28;101280.81;4936108;29;20052;-72
2022/05/12 07:46:24;;;;;;;14.60;9.65;;;;;;;22.43;59.52;101280.31;4936217;29;20051;-71
2022/05/12 07:48:53;;;;;;;14.43;8.05;;;;;;;22.42;59.08;101281.50;4936077;29;20064;-71
2022/05/12 07:51:22;;;;;;;15.43;8.77;;;;;;;22.61;57.40;101277.38;4935617;29;20046;-71
2022/05/12 07:53:51;;;;;;;17.00;10.02;;;;;;;22.65;57.97;101281.13;4936261;29;20055;-71
2022/05/12 07:56:21;;;;;;;15.77;9.00;;;;;;;22.58;57.11;101280.88;4935419;29;20051;-71
2022/05/12 07:58:49;;;;;;;16.40;9.20;;;;;;;22.62;58.28;101281.81;4935688;29;20055;-71
2022/05/12 08:01:19;;;;;;;14.55;9.30;;;;;;;22.69;59.15;101276.47;4935977;29;20510;-71
2022/05/12 08:03:47;;;;;;;15.68;9.32;;;;;;;22.68;57.77;101275.66;4935830;29;20047;-71
2022/05/12 08:06:16;;;;;;;14.70;9.30;;;;;;;22.77;57.18;101280.31;4935580;29;20519;-71
2022/05/12 08:08:48;;;;;;;15.23;9.38;;;;;;;22.82;56.44;101283.69;4935140;29;20052;-71
2022/05/12 08:11:17;;;;;;;17.17;8.45;;;;;;;22.94;56.58;101288.44;4935853;29;20072;-71
2022/05/12 08:13:47;;;;;;;12.65;8.20;;;;;;;22.93;57.02;101292.41;4935313;29;20506;-71
2022/05/12 08:16:17;;;;;;;18.48;11.25;;;;;;;22.94;55.15;101294.03;4936182;29;20043;-71
2022/05/12 08:18:49;;;;;;;13.85;9.13;;;;;;;22.98;54.38;101294.19;4918858;29;20059;-71
2022/05/12 08:21:19;;;;;;;13.48;8.52;;;;;;;23.09;56.34;101283.34;4935596;29;20051;-71
2022/05/12 08:23:49;;;;;;;12.55;8.10;;;;;;;23.26;55.13;101289.88;4935872;29;20051;-71
2022/05/12 08:26:17;;;;;;;14.38;8.05;;;;;;;23.47;54.38;101293.34;4934982;29;20056;-71
2022/05/12 08:28:49;;;;;;;12.90;8.63;;;;;;;23.44;52.33;101285.69;4934956;29;20691;-71
2022/05/12 08:31:20;;;;;;;12.95;8.63;;;;;;;23.40;54.97;101292.34;4935326;29;20526;-71
2022/05/12 08:33:48;;;;;;;13.63;7.75;;;;;;;23.51;53.75;101293.44;4935771;29;20044;-71
2022/05/12 08:36:16;;;;;;;15.32;9.60;;;;;;;23.54;53.83;101289.97;4935750;29;20035;-71
2022/05/12 08:38:44;;;;;;;12.50;8.50;;;;;;;23.60;54.20;101296.94;4935797;29;20055;-72
2022/05/12 08:41:39;;;;;;;14.77;9.23;;;;;;;23.70;54.86;101292.84;4934977;29;20054;-71
2022/05/12 08:44:13;;;;;;;17.73;10.23;;;;;;;23.67;54.07;101289.94;4935523;29;20055;-71
2022/05/12 08:46:54;;;;;;;11.95;7.63;;;;;;;23.97;53.79;101289.63;4934909;29;20059;-71
2022/05/12 08:49:28;;;;;;;14.88;8.82;;;;;;;24.02;53.01;101289.38;4934733;29;20063;-71
2022/05/12 08:52:46;;;;;;;11.88;8.38;;;;;;;24.15;52.38;101293.75;4935019;29;20411;-71
2022/05/12 08:55:27;;;;;;;10.27;7.00;;;;;;;24.19;51.59;101287.47;4857636;29;20061;-71
2022/05/12 08:58:08;;;;;;;15.95;7.90;;;;;;;24.35;51.06;101291.13;4935442;29;20040;-71
2022/05/12 09:01:00;;;;;;;9.40;6.90;;;;;;;24.37;50.62;101283.16;4917842;29;20051;-73
2022/05/12 09:03:35;;;;;;;9.82;6.57;;;;;;;24.65;49.80;101281.50;4919274;29;20043;-71
2022/05/12 09:06:15;;;;;;;10.02;6.75;;;;;;;24.70;49.44;101279.22;4934806;29;20055;-71
2022/05/12 09:09:09;;;;;;;10.75;6.63;;;;;;;24.71;49.81;101271.66;4934788;29;20059;-71
2022/05/12 09:11:58;;;;;;;11.75;7.50;;;;;;;24.76;49.41;101270.56;4933839;29;20136;-71
2022/05/12 09:14:42;;;;;;;7.45;6.15;;;;;;;24.74;49.20;101270.94;4917373;29;20064;-71
2022/05/12 09:17:19;;;;;;;12.38;6.90;;;;;;;24.64;49.49;101263.06;4934298;29;20048;-71
2022/05/12 09:19:48;;;;;;;12.10;7.22;;;;;;;24.66;49.28;101264.34;4934154;29;20058;-71
2022/05/12 09:22:26;;;;;;;11.73;7.13;;;;;;;24.91;49.66;101272.59;4935062;29;20044;-71
2022/05/12 09:24:54;;;;;;;13.32;7.13;;;;;;;24.98;50.98;101265.53;4934927;29;20056;-71
2022/05/12 09:27:32;;;;;;;12.50;7.38;;;;;;;24.90;49.12;101261.75;4921638;29;20047;-72
2022/05/12 09:30:00;;;;;;;10.35;6.72;;;;;;;25.08;50.02;101270.59;4921638;29;20534;-71
2022/05/12 09:32:37;;;;;;;8.18;5.20;;;;;;;25.16;47.87;101260.38;4908272;29;20047;-71
2022/05/12 09:35:23;;;;;;;6.30;4.25;;;;;;;25.16;46.41;101265.97;4934155;29;20051;-71
2022/05/12 09:37:53;;;;;;;8.10;4.18;;;;;;;25.14;46.49;101271.94;4931223;29;20058;-72
2022/05/12 09:40:37;;;;;;;5.13;4.05;;;;;;;25.25;47.25;101257.34;4934459;29;20052;-72
2022/05/12 09:43:26;;;;;;;6.18;3.72;;;;;;;25.28;45.74;101257.44;4934051;29;20052;-71
2022/05/12 09:46:29;;;;;;;5.68;4.03;;;;;;;25.41;45.68;101260.13;4917699;29;20043;-71
2022/05/12 09:49:20;;;;;;;6.03;3.42;;;;;;;25.42;45.39;101256.13;4934633;29;20048;-71
2022/05/12 09:51:47;;;;;;;4.22;3.83;;;;;;;25.56;44.69;101264.06;4910553;29;20043;-71
2022/05/12 09:54:33;;;;;;;3.60;3.30;;;;;;;25.53;44.89;101264.78;4933700;29;20044;-72
2022/05/12 09:57:26;;;;;;;4.47;3.53;;;;;;;25.78;45.18;101262.53;4933742;29;20055;-71
2022/05/12 09:59:57;;;;;;;4.25;3.15;;;;;;;25.85;42.73;101259.88;4933821;29;20047;-71
2022/05/12 10:08:28;;;;;;;4.60;3.25;;;;;;;25.84;43.27;101274.25;4933828;29;20063;-72
2022/05/12 10:11:02;;;;;;;4.60;2.92;;;;;;;25.98;41.84;101263.34;4934613;29;20392;-71
2022/05/12 10:13:50;;;;;;;5.03;3.30;;;;;;;25.94;42.24;101265.25;4933511;29;20044;-71
2022/05/12 10:16:25;;;;;;;3.38;3.08;;;;;;;26.03;42.03;101262.22;4933911;29;20418;-71
2022/05/12 10:18:57;;;;;;;4.15;3.10;;;;;;;26.05;42.16;101259.06;4928805;29;20055;-71
2022/05/12 10:21:34;;;;;;;3.45;3.15;;;;;;;26.11;42.86;101257.56;4928100;29;20492;-71
2022/05/12 10:24:27;;;;;;;4.50;3.22;;;;;;;26.21;42.53;101262.59;4917886;29;20491;-71
2022/05/12 10:27:05;;;;;;;3.92;2.95;;;;;;;26.30;42.06;101259.56;4917333;29;20068;-71
2022/05/12 10:30:13;;;;;;;3.75;3.33;;;;;;;26.36;42.08;101251.66;4925549;29;20828;-71
2022/05/12 10:33:01;;;;;;;4.55;3.65;;;;;;;26.60;42.84;101252.47;4902663;29;20075;-72
2022/05/12 10:35:43;;;;;;;8.35;3.42;;;;;;;26.62;42.21;101241.66;4902960;29;20048;-71
2022/05/12 10:38:36;;;;;;;6.38;3.53;;;;;;;26.71;43.71;101242.22;4903955;29;20047;-71
2022/05/12 10:41:20;;;;;;;3.90;3.15;;;;;;;26.90;42.65;101238.53;4908948;29;20052;-71
2022/05/12 10:44:07;;;;;;;4.35;3.70;;;;;;;26.80;42.31;101242.78;4906223;29;20044;-72
2022/05/12 10:46:57;;;;;;;4.78;3.80;;;;;;;26.77;40.98;101232.28;4914658;29;20040;-71
2022/05/12 10:49:43;;;;;;;4.80;3.65;;;;;;;26.68;43.29;101235.38;4942829;29;20051;-71
2022/05/12 10:53:02;;;;;;;5.10;3.50;;;;;;;26.83;43.04;101227.16;4920492;29;20043;-71
2022/05/12 10:56:12;;;;;;;5.28;3.85;;;;;;;26.80;43.17;101227.94;4922284;29;20055;-71
2022/05/12 10:58:56;;;;;;;5.25;4.15;;;;;;;26.83;43.49;101225.19;4927983;29;20394;-72
2022/05/12 11:01:35;;;;;;;3.78;3.20;;;;;;;26.86;43.87;101223.59;4930203;29;22277;-71
2022/05/12 11:04:16;;;;;;;6.45;4.03;;;;;;;26.96;43.85;101228.63;4935149;29;20466;-71
2022/05/12 11:06:54;;;;;;;6.53;3.83;;;;;;;27.24;43.44;101227.41;4936943;29;20048;-71
2022/05/12 11:09:30;;;;;;;4.95;3.90;;;;;;;27.37;43.40;101219.56;4936968;29;20047;-71
2022/05/12 11:12:21;;;;;;;4.28;3.50;;;;;;;27.53;42.60;101221.38;4936991;29;20067;-71
2022/05/12 11:14:55;;;;;;;5.90;3.50;;;;;;;27.67;41.79;101220.78;4930613;29;20388;-71
2022/05/12 11:17:30;;;;;;;3.53;3.08;;;;;;;27.66;41.63;101221.16;4936816;29;20052;-71
2022/05/12 11:20:26;;;;;;;3.38;2.88;;;;;;;27.81;40.13;101208.84;4918084;29;20094;-71
2022/05/12 11:23:20;;;;;;;3.65;2.75;;;;;;;28.00;40.80;101221.94;4930751;29;20047;-72
2022/05/12 11:25:51;;;;;;;6.05;2.80;;;;;;;28.05;39.70;101206.69;4923897;29;20052;-72
2022/05/12 11:31:40;;;;;;;3.03;2.75;;;;;;;28.03;40.87;101214.72;4931266;29;20051;-71
2022/05/12 11:34:22;;;;;;;3.25;2.95;;;;;;;28.26;42.06;101203.31;4931803;29;20052;-72
2022/05/12 11:36:53;;;;;;;3.03;2.38;;;;;;;28.33;39.49;101211.03;4931293;29;20056;-71
2022/05/12 11:39:30;;;;;;;4.22;2.78;;;;;;;28.40;39.67;101202.63;4934383;29;20044;-71
2022/05/12 11:42:25;;;;;;;3.47;2.80;;;;;;;28.35;39.00;101207.81;4927724;29;20051;-71
2022/05/12 11:45:31;;;;;;;3.00;2.70;;;;;;;28.43;40.34;101209.50;4935808;29;20411;-71
2022/05/12 11:48:30;;;;;;;3.65;3.00;;;;;;;28.30;40.53;101203.38;4922056;29;20039;-71
2022/05/12 11:51:25;;;;;;;4.80;2.75;;;;;;;28.49;39.00;101201.50;4936698;29;20051;-71
2022/05/12 11:54:07;;;;;;;3.72;2.80;;;;;;;28.39;39.25;101197.41;4936810;29;20058;-71
2022/05/12 11:56:52;;;;;;;3.60;2.80;;;;;;;28.62;39.20;101191.56;4933191;29;20055;-71
2022/05/12 11:59:26;;;;;;;4.00;2.63;;;;;;;28.49;38.91;101201.50;4920013;29;20052;-72
2022/05/12 12:02:03;;;;;;;6.07;2.92;;;;;;;28.48;38.50;101177.38;4923968;29;20492;-72
2022/05/12 12:04:45;;;;;;;4.15;2.40;;;;;;;28.60;39.02;101182.72;4935838;29;20043;-72
2022/05/12 12:07:35;;;;;;;3.83;2.75;;;;;;;28.87;37.94;101179.69;4936317;29;20525;-72